createdAt,value
2018-07-23T00:00:32.919Z,99481.93
2018-07-23T00:03:00.381Z,99481.48
2018-07-23T00:05:27.833Z,99485.05
2018-07-23T00:07:55.309Z,99485.61
2018-07-23T00:10:22.753Z,99486.02
2018-07-23T00:12:50.217Z,99481.42
2018-07-23T00:15:17.665Z,99485.88
2018-07-23T00:17:45.139Z,99486.02
2018-07-23T00:20:12.561Z,99482.87
2018-07-23T00:22:40.043Z,99485.61
2018-07-23T00:25:07.498Z,99480.13
2018-07-23T00:27:34.944Z,99486.27
2018-07-23T00:30:02.389Z,99478.55
2018-07-23T00:32:29.876Z,99485.75
2018-07-23T00:34:57.335Z,99478.12
2018-07-23T00:37:24.781Z,99478.08
2018-07-23T00:39:52.249Z,99480.72
2018-07-23T00:42:19.672Z,99481.05
2018-07-23T00:44:47.149Z,99477.05
2018-07-23T00:47:14.610Z,99480.82
2018-07-23T00:49:42.084Z,99479.75
2018-07-23T00:52:09.513Z,99475.06
2018-07-23T00:54:36.989Z,99472.59
2018-07-23T00:57:05.467Z,99472.80
2018-07-23T00:59:32.909Z,99479.76
2018-07-23T01:02:00.386Z,99483.11
2018-07-23T01:04:27.858Z,99481.44
2018-07-23T01:06:55.273Z,99474.04
2018-07-23T01:09:22.729Z,99471.37
2018-07-23T01:11:50.221Z,99478.32
2018-07-23T01:14:17.669Z,99477.88
2018-07-23T01:16:45.160Z,99472.74
2018-07-23T01:19:12.642Z,99479.62
2018-07-23T01:21:40.073Z,99491.03
2018-07-23T01:24:07.478Z,99483.22
2018-07-23T01:26:34.953Z,99478.91
2018-07-23T01:29:02.397Z,99477.06
2018-07-23T01:31:29.873Z,99484.90
2018-07-23T01:33:57.330Z,99485.79
2018-07-23T01:36:24.762Z,99485.03
2018-07-23T01:38:52.257Z,99486.98
2018-07-23T01:41:19.673Z,99486.52
2018-07-23T01:43:47.157Z,99492.50
2018-07-23T01:46:14.607Z,99494.73
2018-07-23T01:48:42.110Z,99503.66
2018-07-23T01:51:09.561Z,99494.80
2018-07-23T01:53:36.989Z,99493.22
2018-07-23T01:56:04.612Z,99490.06
2018-07-23T01:58:32.086Z,99490.10
2018-07-23T02:01:04.742Z,99490.58
2018-07-23T02:03:32.125Z,99492.33
2018-07-23T02:05:59.601Z,99497.30
2018-07-23T02:08:27.057Z,99496.78
2018-07-23T02:10:54.525Z,99496.41
2018-07-23T02:13:21.951Z,99496.03
2018-07-23T02:15:49.441Z,99491.44
2018-07-23T02:18:16.885Z,99493.83
2018-07-23T02:20:44.345Z,99501.78
2018-07-23T02:23:11.799Z,99499.99
2018-07-23T02:25:39.265Z,99506.32
2018-07-23T02:28:06.718Z,99507.35
2018-07-23T02:30:34.161Z,99508.38
2018-07-23T02:33:01.638Z,99507.59
2018-07-23T02:35:29.096Z,99499.92
2018-07-23T02:37:56.549Z,99504.88
2018-07-23T02:40:23.987Z,99507.52
2018-07-23T02:42:51.481Z,99500.47
2018-07-23T02:45:18.906Z,99504.70
2018-07-23T02:47:46.374Z,99505.84
2018-07-23T02:50:13.889Z,99499.33
2018-07-23T02:52:41.265Z,99506.52
2018-07-23T02:55:08.747Z,99498.55
2018-07-23T02:57:37.066Z,99507.00
2018-07-23T03:00:04.791Z,99505.84
2018-07-23T03:02:32.159Z,99504.78
2018-07-23T03:04:59.602Z,99502.45
2018-07-23T03:07:27.078Z,99507.27
2018-07-23T03:09:54.493Z,99505.73
2018-07-23T03:12:21.975Z,99506.14
2018-07-23T03:14:49.399Z,99509.91
2018-07-23T03:17:16.895Z,99509.66
2018-07-23T03:19:44.365Z,99514.77
2018-07-23T03:22:11.851Z,99521.70
2018-07-23T03:24:39.225Z,99527.22
2018-07-23T03:27:06.712Z,99526.02
2018-07-23T03:29:34.166Z,99527.86
2018-07-23T03:32:01.638Z,99532.31
2018-07-23T03:34:29.085Z,99536.14
2018-07-23T03:36:56.582Z,99539.02
2018-07-23T03:39:23.998Z,99538.36
2018-07-23T03:41:51.482Z,99539.80
2018-07-23T03:44:18.894Z,99533.38
2018-07-23T03:46:46.350Z,99534.70
2018-07-23T03:49:13.825Z,99527.67
2018-07-23T03:51:41.289Z,99532.37
2018-07-23T03:54:08.744Z,99532.97
2018-07-23T03:56:36.209Z,99537.98
2018-07-23T03:59:04.405Z,99539.55
2018-07-23T04:01:31.817Z,99538.52
2018-07-23T04:03:59.294Z,99547.80
2018-07-23T04:06:26.729Z,99551.73
2018-07-23T04:08:54.205Z,99544.78
2018-07-23T04:11:21.650Z,99543.20
2018-07-23T04:13:49.179Z,99546.63
2018-07-23T04:16:16.497Z,99546.88
2018-07-23T04:18:44.021Z,99554.36
2018-07-23T04:21:11.481Z,99549.50
2018-07-23T04:23:38.930Z,99553.02
2018-07-23T04:26:06.244Z,99548.06
2018-07-23T04:28:33.657Z,99559.96
2018-07-23T04:31:01.113Z,99556.19
2018-07-23T04:33:28.565Z,99559.17
2018-07-23T04:35:55.897Z,99558.17
2018-07-23T04:38:23.270Z,99560.51
2018-07-23T04:40:50.705Z,99559.31
2018-07-23T04:43:18.053Z,99561.16
2018-07-23T04:45:45.417Z,99564.57
2018-07-23T04:48:12.899Z,99564.81
2018-07-23T04:50:40.385Z,99564.44
2018-07-23T04:53:07.678Z,99561.56
2018-07-23T04:55:35.046Z,99559.23
2018-07-23T04:58:02.522Z,99562.75
2018-07-23T05:00:29.989Z,99565.63
2018-07-23T05:02:57.326Z,99562.64
2018-07-23T05:05:24.689Z,99561.99
2018-07-23T05:07:52.170Z,99563.83
2018-07-23T05:10:19.593Z,99566.41
2018-07-23T05:12:46.929Z,99568.74
2018-07-23T05:15:14.301Z,99571.51
2018-07-23T05:17:41.790Z,99579.09
2018-07-23T05:20:09.101Z,99572.30
2018-07-23T05:22:36.456Z,99572.70
2018-07-23T05:25:04.003Z,99574.19
2018-07-23T05:27:31.378Z,99578.85
2018-07-23T05:29:58.853Z,99578.98
2018-07-23T05:32:26.295Z,99582.63
2018-07-23T05:34:54.277Z,99575.33
2018-07-23T05:37:21.633Z,99575.19
2018-07-23T05:39:49.093Z,99572.31
2018-07-23T05:42:16.576Z,99578.98
2018-07-23T05:44:43.983Z,99582.13
2018-07-23T05:47:11.525Z,99583.45
2018-07-23T05:49:38.974Z,99585.54
2018-07-23T05:52:06.364Z,99587.63
2018-07-23T05:54:33.817Z,99584.05
2018-07-23T05:57:01.290Z,99582.52
2018-07-23T05:59:28.754Z,99583.16
2018-07-23T06:01:56.178Z,99579.20
2018-07-23T06:04:23.645Z,99582.95
2018-07-23T06:06:51.258Z,99581.87
2018-07-23T06:09:18.569Z,99582.37
2018-07-23T06:11:46.052Z,99584.48
2018-07-23T06:14:13.494Z,99584.50
2018-07-23T06:16:41.504Z,99587.36
2018-07-23T06:19:09.014Z,99586.69
2018-07-23T06:21:36.475Z,99586.33
2018-07-23T06:24:04.055Z,99596.34
2018-07-23T06:26:32.446Z,99592.68
2018-07-23T06:28:59.857Z,99592.08
2018-07-23T06:31:27.322Z,99589.16
2018-07-23T06:33:54.757Z,99591.17
2018-07-23T06:36:24.169Z,99588.66
2018-07-23T06:38:51.653Z,99600.55
2018-07-23T06:41:19.130Z,99596.48
2018-07-23T06:43:46.478Z,99595.05
2018-07-23T06:46:14.009Z,99589.94
2018-07-23T06:48:41.524Z,99595.94
2018-07-23T06:51:08.934Z,99595.15
2018-07-23T06:53:36.369Z,99599.71
2018-07-23T06:56:03.916Z,99600.00
2018-07-23T06:58:31.297Z,99597.53
2018-07-23T07:00:58.754Z,99600.11
2018-07-23T07:03:26.300Z,99600.50
2018-07-23T07:05:53.658Z,99599.41
2018-07-23T07:08:21.130Z,99599.22
2018-07-23T07:10:48.499Z,99598.47
2018-07-23T07:13:15.830Z,99602.93
2018-07-23T07:15:43.307Z,99604.06
2018-07-23T07:18:10.690Z,99602.24
2018-07-23T07:20:38.035Z,99597.53
2018-07-23T07:23:05.461Z,99597.19
2018-07-23T07:25:33.005Z,99598.22
2018-07-23T07:28:00.357Z,99600.84
2018-07-23T07:30:27.702Z,99602.38
2018-07-23T07:32:55.082Z,99597.53
2018-07-23T07:35:22.533Z,99601.09
2018-07-23T07:37:49.926Z,99601.83
2018-07-23T07:40:17.237Z,99602.73
2018-07-23T07:42:44.698Z,99598.02
2018-07-23T07:45:12.165Z,99601.00
2018-07-23T07:47:39.625Z,99595.09
2018-07-23T07:50:07.080Z,99603.22
2018-07-23T07:52:34.510Z,99604.56
2018-07-23T07:55:01.837Z,99606.89
2018-07-23T07:57:29.142Z,99607.32
2018-07-23T07:59:56.465Z,99600.90
2018-07-23T08:02:23.782Z,99597.37
2018-07-23T08:04:52.118Z,99586.28
2018-07-23T08:07:19.437Z,99589.05
2018-07-23T08:09:46.737Z,99589.66
2018-07-23T08:12:14.070Z,99589.80
2018-07-23T08:14:41.397Z,99593.45
2018-07-23T08:17:09.901Z,99585.39
2018-07-23T08:19:37.249Z,99592.39
2018-07-23T08:22:05.375Z,99595.52
2018-07-23T08:24:32.753Z,99584.98
2018-07-23T08:27:00.166Z,99588.91
2018-07-23T08:29:27.467Z,99584.28
2018-07-23T08:31:54.994Z,99584.20
2018-07-23T08:34:22.170Z,99582.98
2018-07-23T08:36:49.481Z,99599.27
2018-07-23T08:39:16.782Z,99587.77
2018-07-23T08:41:44.206Z,99599.16
2018-07-23T08:44:11.518Z,99591.97
2018-07-23T08:46:38.835Z,99592.80
2018-07-23T08:49:06.162Z,99599.48
2018-07-23T08:51:33.482Z,99599.41
2018-07-23T08:54:00.833Z,99595.89
2018-07-23T08:56:28.145Z,99603.47
2018-07-23T08:58:55.504Z,99587.64
2018-07-23T09:01:22.845Z,99593.52
2018-07-23T09:03:50.176Z,99592.05
2018-07-23T09:06:17.555Z,99595.09
2018-07-23T09:08:44.908Z,99606.43
2018-07-23T09:11:12.196Z,99596.91
2018-07-23T09:13:39.508Z,99607.23
2018-07-23T09:16:06.864Z,99610.91
2018-07-23T09:18:34.913Z,99610.39
2018-07-23T09:21:02.239Z,99605.01
2018-07-23T09:23:29.533Z,99604.91
2018-07-23T09:25:56.857Z,99599.53
2018-07-23T09:28:24.167Z,99607.36
2018-07-23T09:30:51.649Z,99603.55
2018-07-23T09:33:19.152Z,99600.91
2018-07-23T09:35:46.540Z,99601.27
2018-07-23T09:38:13.975Z,99604.27
2018-07-23T09:40:41.454Z,99610.42
2018-07-23T09:43:08.865Z,99604.78
2018-07-23T09:45:36.362Z,99598.28
2018-07-23T09:48:03.837Z,99601.10
2018-07-23T09:50:31.254Z,99599.75
2018-07-23T09:52:58.689Z,99602.11
2018-07-23T09:55:26.026Z,99603.69
2018-07-23T09:57:53.430Z,99598.93
2018-07-23T10:00:20.885Z,99596.90
2018-07-23T10:02:48.237Z,99602.52
2018-07-23T10:05:15.541Z,99591.45
2018-07-23T10:07:43.042Z,99600.13
2018-07-23T10:10:10.596Z,99599.37
2018-07-23T10:12:37.982Z,99596.19
2018-07-23T10:15:05.657Z,99591.33
2018-07-23T10:17:33.098Z,99592.12
2018-07-23T10:20:00.701Z,99597.98
2018-07-23T10:22:28.855Z,99603.22
2018-07-23T10:24:56.441Z,99593.15
2018-07-23T10:27:24.052Z,99596.92
2018-07-23T10:29:51.367Z,99587.50
2018-07-23T10:32:18.744Z,99590.13
2018-07-23T10:34:46.077Z,99587.91
2018-07-23T10:37:14.554Z,99588.94
2018-07-23T10:39:42.705Z,99600.20
2018-07-23T10:42:10.301Z,99586.85
2018-07-23T10:44:37.797Z,99599.01
2018-07-23T10:47:05.431Z,99585.41
2018-07-23T10:49:32.897Z,99581.89
2018-07-23T10:52:00.342Z,99583.97
2018-07-23T10:54:27.805Z,99585.52
2018-07-23T10:56:55.263Z,99589.32
2018-07-23T10:59:23.564Z,99579.01
2018-07-23T11:01:51.036Z,99581.45
2018-07-23T11:04:18.563Z,99587.09
2018-07-23T11:06:45.890Z,99582.88
2018-07-23T11:09:13.370Z,99583.43
2018-07-23T11:11:40.698Z,99580.25
2018-07-23T11:14:08.081Z,99573.73
2018-07-23T11:16:35.518Z,99579.49
2018-07-23T11:19:03.048Z,99579.49
2018-07-23T11:21:30.354Z,99576.86
2018-07-23T11:23:57.739Z,99582.37
2018-07-23T11:26:25.230Z,99581.17
2018-07-23T11:28:52.589Z,99574.73
2018-07-23T11:31:19.930Z,99578.30
2018-07-23T11:33:47.314Z,99578.40
2018-07-23T11:36:14.815Z,99572.00
2018-07-23T11:38:42.245Z,99574.22
2018-07-23T11:41:10.726Z,99571.20
2018-07-23T11:43:38.247Z,99577.20
2018-07-23T11:46:05.722Z,99579.43
2018-07-23T11:48:33.109Z,99572.34
2018-07-23T11:51:00.589Z,99572.34
2018-07-23T11:53:28.167Z,99573.78
2018-07-23T11:55:55.445Z,99573.13
2018-07-23T11:58:22.805Z,99573.27
2018-07-23T12:00:50.270Z,99577.03
2018-07-23T12:03:17.629Z,99570.49
2018-07-23T12:05:45.077Z,99565.52
2018-07-23T12:08:12.571Z,99564.88
2018-07-23T12:10:40.034Z,99562.78
2018-07-23T12:13:07.449Z,99567.88
2018-07-23T12:15:34.842Z,99560.83
2018-07-23T12:18:03.170Z,99569.46
2018-07-23T12:20:30.651Z,99564.36
2018-07-23T12:22:58.093Z,99559.39
2018-07-23T12:25:25.598Z,99564.46
2018-07-23T12:27:52.978Z,99556.99
2018-07-23T12:30:20.481Z,99554.11
2018-07-23T12:32:47.951Z,99555.79
2018-07-23T12:35:15.413Z,99550.14
2018-07-23T12:37:42.829Z,99563.64
2018-07-23T12:40:11.193Z,99566.10
2018-07-23T12:42:38.728Z,99556.14
2018-07-23T12:45:06.320Z,99557.03
2018-07-23T12:47:33.719Z,99557.81
2018-07-23T12:50:01.198Z,99552.95
2018-07-23T12:52:28.635Z,99555.31
2018-07-23T12:54:56.041Z,99552.30
2018-07-23T12:57:23.567Z,99553.33
2018-07-23T12:59:51.077Z,99550.69
2018-07-23T13:02:18.458Z,99550.31
2018-07-23T13:04:45.841Z,99557.09
2018-07-23T13:07:13.378Z,99549.24
2018-07-23T13:09:40.861Z,99557.64
2018-07-23T13:12:08.267Z,99553.80
2018-07-23T13:14:35.739Z,99544.14
2018-07-23T13:17:03.268Z,99556.02
2018-07-23T13:19:30.664Z,99550.38
2018-07-23T13:21:58.047Z,99550.92
2018-07-23T13:24:25.657Z,99538.75
2018-07-23T13:26:53.099Z,99541.73
2018-07-23T13:29:20.558Z,99539.64
2018-07-23T13:31:48.001Z,99539.09
2018-07-23T13:34:15.456Z,99529.80
2018-07-23T13:36:42.924Z,99536.35
2018-07-23T13:39:10.325Z,99533.23
2018-07-23T13:41:37.794Z,99536.35
2018-07-23T13:44:05.213Z,99532.27
2018-07-23T13:46:32.833Z,99528.71
2018-07-23T13:49:00.323Z,99529.50
2018-07-23T13:51:27.814Z,99528.19
2018-07-23T13:53:55.341Z,99528.05
2018-07-23T13:56:22.882Z,99533.27
2018-07-23T13:58:50.458Z,99524.28
2018-07-23T14:01:17.925Z,99529.45
2018-07-23T14:03:45.519Z,99524.11
2018-07-23T14:06:12.952Z,99524.21
2018-07-23T14:08:40.546Z,99521.70
2018-07-23T14:11:08.085Z,99520.81
2018-07-23T14:13:35.420Z,99521.52
2018-07-23T14:16:03.343Z,99526.91
2018-07-23T14:18:30.883Z,99524.69
2018-07-23T14:20:58.297Z,99520.60
2018-07-23T14:23:25.757Z,99517.95
2018-07-23T14:25:53.217Z,99509.32
2018-07-23T14:28:20.550Z,99518.64
2018-07-23T14:30:47.931Z,99518.74
2018-07-23T14:33:15.579Z,99519.30
2018-07-23T14:35:43.029Z,99516.52
2018-07-23T14:38:10.510Z,99517.07
2018-07-23T14:40:38.110Z,99507.55
2018-07-23T14:43:07.544Z,99507.41
2018-07-23T14:45:34.921Z,99506.20
2018-07-23T14:48:02.370Z,99506.20
2018-07-23T14:50:29.834Z,99501.60
2018-07-23T14:52:57.289Z,99500.92
2018-07-23T14:55:24.747Z,99498.83
2018-07-23T14:57:52.292Z,99501.60
2018-07-23T15:00:19.665Z,99499.48
2018-07-23T15:02:47.105Z,99497.52
2018-07-23T15:05:14.654Z,99497.94
2018-07-23T15:07:42.637Z,99493.38
2018-07-23T15:10:10.959Z,99493.62
2018-07-23T15:12:38.361Z,99495.53
2018-07-23T15:15:05.853Z,99494.97
2018-07-23T15:17:33.301Z,99495.11
2018-07-23T15:20:00.729Z,99492.88
2018-07-23T15:22:28.230Z,99493.22
2018-07-23T15:24:55.674Z,99499.30
2018-07-23T15:27:23.169Z,99493.91
2018-07-23T15:29:50.577Z,99491.02
2018-07-23T15:32:18.056Z,99485.36
2018-07-23T15:34:45.490Z,99493.22
2018-07-23T15:37:12.958Z,99492.02
2018-07-23T15:39:40.402Z,99489.92
2018-07-23T15:42:07.906Z,99489.83
2018-07-23T15:44:35.638Z,99484.28
2018-07-23T15:47:02.798Z,99483.30
2018-07-23T15:49:30.273Z,99490.92
2018-07-23T15:51:57.871Z,99491.02
2018-07-23T15:54:25.462Z,99486.95
2018-07-23T15:56:52.961Z,99485.41
2018-07-23T15:59:20.665Z,99486.53
2018-07-23T16:01:48.185Z,99486.53
2018-07-23T16:04:15.653Z,99486.95
2018-07-23T16:06:43.706Z,99489.08
2018-07-23T16:09:11.205Z,99487.97
2018-07-23T16:11:38.607Z,99476.88
2018-07-23T16:14:05.945Z,99480.24
2018-07-23T16:17:37.540Z,99477.91
2018-07-23T16:20:08.831Z,99477.08
2018-07-23T16:22:36.348Z,99480.24
2018-07-23T16:25:06.067Z,99478.98
2018-07-23T16:27:37.422Z,99475.09
2018-07-23T16:30:13.222Z,99476.45
2018-07-23T16:32:41.403Z,99475.23
2018-07-23T16:35:12.983Z,99477.55
2018-07-23T16:37:42.687Z,99475.79
2018-07-23T16:40:19.481Z,99478.82
2018-07-23T16:42:51.579Z,99477.52
2018-07-23T16:45:20.928Z,99480.95
2018-07-23T16:47:50.319Z,99477.38
2018-07-23T16:50:18.917Z,99481.09
2018-07-23T16:55:22.459Z,99478.21
2018-07-23T16:57:49.869Z,99480.53
2018-07-23T17:00:17.343Z,99477.00
2018-07-23T17:02:44.765Z,99477.11
2018-07-23T17:05:12.221Z,99470.69
2018-07-23T17:07:39.708Z,99471.19
2018-07-23T17:10:07.129Z,99466.63
2018-07-23T17:12:34.609Z,99474.77
2018-07-23T17:15:02.050Z,99474.30
2018-07-23T17:17:29.505Z,99472.07
2018-07-23T17:19:56.993Z,99477.32
2018-07-23T17:22:24.432Z,99473.22
2018-07-23T17:24:51.895Z,99472.48
2018-07-23T17:27:19.329Z,99469.78
2018-07-23T17:29:46.889Z,99471.69
2018-07-23T17:32:14.249Z,99467.37
2018-07-23T17:34:41.737Z,99475.82
2018-07-23T17:37:09.167Z,99474.14
2018-07-23T17:39:36.673Z,99474.05
2018-07-23T17:42:04.177Z,99471.17
2018-07-23T17:44:31.546Z,99465.18
2018-07-23T17:46:59.022Z,99471.17
2018-07-23T17:49:26.504Z,99468.84
2018-07-23T17:51:53.929Z,99466.30
2018-07-23T17:54:21.403Z,99473.41
2018-07-23T17:56:48.894Z,99477.40
2018-07-23T17:59:16.945Z,99472.95
2018-07-23T18:01:44.405Z,99472.95
2018-07-23T18:04:11.903Z,99469.22
2018-07-23T18:06:39.321Z,99478.05
2018-07-23T18:09:07.561Z,99477.96
2018-07-23T18:11:35.196Z,99478.94
2018-07-23T18:14:02.716Z,99474.62
2018-07-23T18:16:30.142Z,99475.59
2018-07-23T18:18:57.610Z,99478.94
2018-07-23T18:21:25.101Z,99483.27
2018-07-23T18:23:52.509Z,99480.52
2018-07-23T18:26:19.958Z,99481.63
2018-07-23T18:28:47.465Z,99480.28
2018-07-23T18:31:15.221Z,99468.79
2018-07-23T18:33:43.106Z,99475.80
2018-07-23T18:36:10.940Z,99472.59
2018-07-23T18:38:38.626Z,99475.27
2018-07-23T18:41:06.243Z,99473.73
2018-07-23T18:43:33.894Z,99477.41
2018-07-23T18:46:01.491Z,99473.08
2018-07-23T18:49:37.329Z,99473.61
2018-07-23T18:52:05.694Z,99469.67
2018-07-23T18:54:33.910Z,99469.21
2018-07-23T18:57:01.711Z,99467.87
2018-07-23T18:59:29.369Z,99471.11
2018-07-23T19:01:57.262Z,99469.37
2018-07-23T19:04:25.072Z,99472.78
2018-07-23T19:06:52.834Z,99467.50
2018-07-23T19:09:20.619Z,99471.47
2018-07-23T19:11:48.401Z,99470.38
2018-07-23T19:14:16.045Z,99472.05
2018-07-23T19:16:43.697Z,99477.13
2018-07-23T19:19:11.382Z,99475.51
2018-07-23T19:21:39.078Z,99478.14
2018-07-23T19:24:06.784Z,99482.02
2018-07-23T19:26:34.632Z,99485.55
2018-07-23T19:29:02.463Z,99488.36
2018-07-23T19:31:30.565Z,99489.50
2018-07-23T19:33:58.315Z,99489.78
2018-07-23T19:36:26.030Z,99495.71
2018-07-23T19:38:53.863Z,99496.76
2018-07-23T19:41:21.818Z,99497.94
2018-07-23T19:43:49.393Z,99502.47
2018-07-23T19:46:17.171Z,99499.13
2018-07-23T19:48:45.008Z,99509.77
2018-07-23T19:51:12.938Z,99509.50
2018-07-23T19:53:41.899Z,99513.19
2018-07-23T19:56:09.914Z,99511.42
2018-07-23T19:58:37.863Z,99510.86
2018-07-23T20:01:05.420Z,99509.79
2018-07-23T20:03:33.150Z,99515.22
2018-07-23T20:06:00.879Z,99517.19
2018-07-23T20:08:28.413Z,99511.19
2018-07-23T20:10:56.026Z,99515.64
2018-07-23T20:13:23.906Z,99517.81
2018-07-23T20:15:51.732Z,99512.00
2018-07-23T20:18:19.923Z,99507.67
2018-07-23T20:20:47.734Z,99508.95
2018-07-23T20:23:15.557Z,99509.34
2018-07-23T20:25:43.394Z,99510.16
2018-07-23T20:28:11.089Z,99512.62
2018-07-23T20:30:38.833Z,99512.16
2018-07-23T20:33:06.427Z,99511.66
2018-07-23T20:35:34.239Z,99508.16
2018-07-23T20:38:01.795Z,99506.98
2018-07-23T20:40:29.274Z,99512.55
2018-07-23T20:42:57.161Z,99508.95
2018-07-23T20:45:24.904Z,99511.77
2018-07-23T20:47:52.526Z,99515.95
2018-07-23T20:50:20.281Z,99512.75
2018-07-23T20:52:48.067Z,99515.09
2018-07-23T20:55:15.970Z,99517.95
2018-07-23T20:57:44.074Z,99505.67
2018-07-23T21:00:11.744Z,99512.94
2018-07-23T21:02:39.506Z,99505.80
2018-07-23T21:05:07.257Z,99507.41
2018-07-23T21:07:34.977Z,99511.56
2018-07-23T21:10:02.687Z,99506.48
2018-07-23T21:12:30.655Z,99502.26
2018-07-23T21:14:58.781Z,99504.98
2018-07-23T21:17:26.933Z,99506.52
2018-07-23T21:19:54.771Z,99506.39
2018-07-23T21:22:23.900Z,99515.95
2018-07-23T21:24:52.119Z,99521.39
2018-07-23T21:27:20.421Z,99516.05
2018-07-23T21:29:48.756Z,99515.46
2018-07-23T21:32:17.747Z,99519.95
2018-07-23T21:34:46.325Z,99523.73
2018-07-23T21:37:14.870Z,99519.40
2018-07-23T21:39:42.747Z,99525.09
2018-07-23T21:42:10.660Z,99525.02
2018-07-23T21:44:38.457Z,99527.03
2018-07-23T21:47:06.431Z,99529.17
2018-07-23T21:49:34.147Z,99523.13
2018-07-23T21:52:01.727Z,99520.20
2018-07-23T21:54:29.332Z,99520.34
2018-07-23T21:56:57.112Z,99519.13
2018-07-23T21:59:24.836Z,99518.53
2018-07-23T22:01:52.573Z,99530.75
2018-07-23T22:04:20.173Z,99524.98
2018-07-23T22:06:47.718Z,99527.00
2018-07-23T22:09:15.531Z,99529.69
2018-07-23T22:11:43.182Z,99527.00
2018-07-23T22:14:10.839Z,99528.56
2018-07-23T22:16:38.653Z,99528.95
2018-07-23T22:19:06.390Z,99528.61
2018-07-23T22:21:33.937Z,99528.05
2018-07-23T22:24:01.686Z,99528.44
2018-07-23T22:26:29.394Z,99527.00
2018-07-23T22:28:57.069Z,99526.72
2018-07-23T22:31:24.864Z,99527.86
2018-07-23T22:33:52.646Z,99527.31
2018-07-23T22:36:20.385Z,99524.38
2018-07-23T22:38:48.109Z,99522.94
2018-07-23T22:41:15.793Z,99523.43
2018-07-23T22:43:43.520Z,99526.83
2018-07-23T22:46:11.296Z,99524.88
2018-07-23T22:48:39.983Z,99526.31
2018-07-23T22:51:07.601Z,99520.48
2018-07-23T22:53:35.881Z,99524.45
2018-07-23T22:56:03.663Z,99524.22
2018-07-23T22:58:31.529Z,99519.30
2018-07-23T23:00:59.321Z,99521.06
2018-07-23T23:03:27.266Z,99517.30
2018-07-23T23:05:55.704Z,99513.90
2018-07-23T23:08:23.450Z,99514.52
2018-07-23T23:10:51.339Z,99515.95
2018-07-23T23:13:19.351Z,99512.91
2018-07-23T23:15:46.899Z,99512.13
2018-07-23T23:18:14.702Z,99518.48
2018-07-23T23:20:42.571Z,99511.17
2018-07-23T23:23:10.451Z,99512.71
2018-07-23T23:25:38.257Z,99506.19
2018-07-23T23:28:05.946Z,99504.36
2018-07-23T23:30:33.590Z,99506.36
2018-07-23T23:33:01.415Z,99506.36
2018-07-23T23:35:29.043Z,99504.89
2018-07-23T23:37:56.758Z,99500.23
2018-07-23T23:40:24.406Z,99499.68
2018-07-23T23:42:52.102Z,99500.80
2018-07-23T23:45:19.825Z,99503.02
2018-07-23T23:47:47.662Z,99499.35
2018-07-23T23:50:15.429Z,99502.83
2018-07-23T23:52:43.100Z,99500.00
2018-07-23T23:55:10.932Z,99501.34
2018-07-23T23:57:38.602Z,99498.47
